sensor_id;sensor_type;location;lat;lon;timestamp;pressure;altitude;pressure_sealevel;temperature;humidity
25638;BME280;13496;51.040;13.680;2023-10-09T00:00:18;100365.03;;;19.47;47.67
25638;BME280;13496;51.040;13.680;2023-10-09T00:05:39;100363.03;;;19.49;47.62
25638;BME280;13496;51.040;13.680;2023-10-09T00:10:49;100356.94;;;19.48;47.85
25638;BME280;13496;51.040;13.680;2023-10-09T00:15:55;100351.22;;;19.45;47.84
25638;BME280;13496;51.040;13.680;2023-10-09T00:21:03;100341.34;;;19.47;47.38
25638;BME280;13496;51.040;13.680;2023-10-09T00:26:14;100326.38;;;19.47;47.75
25638;BME280;13496;51.040;13.680;2023-10-09T00:31:26;100316.81;;;19.46;47.92
25638;BME280;13496;51.040;13.680;2023-10-09T00:36:31;100297.78;;;19.44;47.92
25638;BME280;13496;51.040;13.680;2023-10-09T00:41:34;100280.97;;;19.45;47.71
25638;BME280;13496;51.040;13.680;2023-10-09T00:46:37;100235.44;;;19.45;47.93
25638;BME280;13496;51.040;13.680;2023-10-09T00:51:49;100197.13;;;19.42;47.92
25638;BME280;13496;51.040;13.680;2023-10-09T00:56:57;100234.63;;;19.44;47.85
25638;BME280;13496;51.040;13.680;2023-10-09T01:02:08;100225.09;;;19.43;47.69
25638;BME280;13496;51.040;13.680;2023-10-09T01:07:09;100245.13;;;19.44;48.16
25638;BME280;13496;51.040;13.680;2023-10-09T01:12:18;100227.72;;;19.43;47.59
25638;BME280;13496;51.040;13.680;2023-10-09T01:17:20;100234.16;;;19.41;47.47
25638;BME280;13496;51.040;13.680;2023-10-09T01:22:38;100230.53;;;19.42;47.96
25638;BME280;13496;51.040;13.680;2023-10-09T01:27:41;100205.38;;;19.39;47.90
25638;BME280;13496;51.040;13.680;2023-10-09T01:32:45;100192.22;;;19.39;47.81
25638;BME280;13496;51.040;13.680;2023-10-09T01:37:47;100175.00;;;19.37;47.74
25638;BME280;13496;51.040;13.680;2023-10-09T01:42:52;100176.19;;;19.34;47.90
25638;BME280;13496;51.040;13.680;2023-10-09T01:47:54;100176.00;;;19.36;47.46
25638;BME280;13496;51.040;13.680;2023-10-09T01:52:56;100183.25;;;19.33;47.76
25638;BME280;13496;51.040;13.680;2023-10-09T01:57:58;100177.81;;;19.35;47.84
25638;BME280;13496;51.040;13.680;2023-10-09T02:03:00;100152.50;;;19.34;47.93
25638;BME280;13496;51.040;13.680;2023-10-09T02:08:06;100124.72;;;19.31;47.67
25638;BME280;13496;51.040;13.680;2023-10-09T02:13:09;100116.84;;;19.31;48.07
25638;BME280;13496;51.040;13.680;2023-10-09T02:18:18;100095.78;;;19.31;47.79
25638;BME280;13496;51.040;13.680;2023-10-09T02:23:28;100098.41;;;19.31;47.54
25638;BME280;13496;51.040;13.680;2023-10-09T02:28:40;100081.81;;;19.31;47.69
25638;BME280;13496;51.040;13.680;2023-10-09T02:33:45;100071.50;;;19.29;47.97
25638;BME280;13496;51.040;13.680;2023-10-09T02:38:47;100053.06;;;19.29;47.74
25638;BME280;13496;51.040;13.680;2023-10-09T02:43:50;100055.06;;;19.27;47.97
25638;BME280;13496;51.040;13.680;2023-10-09T02:48:52;100046.56;;;19.25;47.65
25638;BME280;13496;51.040;13.680;2023-10-09T02:54:03;100041.28;;;19.25;47.91
25638;BME280;13496;51.040;13.680;2023-10-09T02:59:28;100001.84;;;19.25;47.36
25638;BME280;13496;51.040;13.680;2023-10-09T03:04:31;99986.22;;;19.24;47.83
25638;BME280;13496;51.040;13.680;2023-10-09T03:09:33;99984.41;;;19.24;47.97
25638;BME280;13496;51.040;13.680;2023-10-09T03:14:37;99968.38;;;19.19;47.83
25638;BME280;13496;51.040;13.680;2023-10-09T03:19:41;99955.22;;;19.19;47.57
25638;BME280;13496;51.040;13.680;2023-10-09T03:24:48;99943.69;;;19.20;47.59
25638;BME280;13496;51.040;13.680;2023-10-09T03:29:51;99926.28;;;19.19;47.70
25638;BME280;13496;51.040;13.680;2023-10-09T03:34:55;99910.50;;;19.19;47.63
25638;BME280;13496;51.040;13.680;2023-10-09T03:39:56;99888.66;;;19.19;47.94
25638;BME280;13496;51.040;13.680;2023-10-09T03:44:58;99916.78;;;19.18;47.69
25638;BME280;13496;51.040;13.680;2023-10-09T03:50:00;99914.16;;;19.18;48.03
25638;BME280;13496;51.040;13.680;2023-10-09T03:55:11;99925.69;;;19.17;47.52
25638;BME280;13496;51.040;13.680;2023-10-09T04:00:14;99929.28;;;19.16;47.68
25638;BME280;13496;51.040;13.680;2023-10-09T04:05:17;99918.78;;;19.16;47.64
25638;BME280;13496;51.040;13.680;2023-10-09T04:10:20;99904.00;;;19.15;47.95
25638;BME280;13496;51.040;13.680;2023-10-09T04:15:34;99921.41;;;19.16;47.54
25638;BME280;13496;51.040;13.680;2023-10-09T04:20:37;99918.31;;;19.13;47.87
25638;BME280;13496;51.040;13.680;2023-10-09T04:26:17;99920.78;;;19.14;47.80
25638;BME280;13496;51.040;13.680;2023-10-09T04:31:22;99913.50;;;19.16;47.97
25638;BME280;13496;51.040;13.680;2023-10-09T04:36:33;99900.56;;;19.15;47.65
25638;BME280;13496;51.040;13.680;2023-10-09T04:41:47;99904.00;;;19.15;47.84
25638;BME280;13496;51.040;13.680;2023-10-09T04:46:50;99891.22;;;19.12;47.96
25638;BME280;13496;51.040;13.680;2023-10-09T04:52:10;99883.34;;;19.12;47.49
25638;BME280;13496;51.040;13.680;2023-10-09T04:57:20;99859.84;;;19.10;47.84
25638;BME280;13496;51.040;13.680;2023-10-09T05:02:23;99857.41;;;19.09;47.99
25638;BME280;13496;51.040;13.680;2023-10-09T05:07:24;99859.06;;;19.10;47.74
25638;BME280;13496;51.040;13.680;2023-10-09T05:12:51;99864.31;;;19.10;48.15
25638;BME280;13496;51.040;13.680;2023-10-09T05:17:59;99843.66;;;19.07;47.85
25638;BME280;13496;51.040;13.680;2023-10-09T05:23:13;99836.38;;;19.09;48.09
25638;BME280;13496;51.040;13.680;2023-10-09T05:28:24;99819.78;;;19.08;47.65
25638;BME280;13496;51.040;13.680;2023-10-09T05:33:27;99811.88;;;19.08;48.02
25638;BME280;13496;51.040;13.680;2023-10-09T05:38:34;99812.09;;;19.07;48.02
25638;BME280;13496;51.040;13.680;2023-10-09T05:43:45;99806.81;;;19.07;48.01
25638;BME280;13496;51.040;13.680;2023-10-09T05:49:06;99824.59;;;19.05;48.15
25638;BME280;13496;51.040;13.680;2023-10-09T05:54:21;99838.38;;;19.07;47.77
25638;BME280;13496;51.040;13.680;2023-10-09T05:59:45;99838.75;;;19.04;48.15
25638;BME280;13496;51.040;13.680;2023-10-09T06:05:13;99826.63;;;19.03;48.18
25638;BME280;13496;51.040;13.680;2023-10-09T06:10:35;99828.03;;;19.05;48.04
25638;BME280;13496;51.040;13.680;2023-10-09T06:15:42;99836.13;;;19.04;48.03
25638;BME280;13496;51.040;13.680;2023-10-09T06:20:47;99822.78;;;19.05;47.69
25638;BME280;13496;51.040;13.680;2023-10-09T06:26:10;99821.78;;;19.06;48.17
25638;BME280;13496;51.040;13.680;2023-10-09T06:31:25;99815.72;;;19.06;47.93
25638;BME280;13496;51.040;13.680;2023-10-09T06:36:49;99818.34;;;19.06;48.10
25638;BME280;13496;51.040;13.680;2023-10-09T06:41:54;99821.59;;;19.08;47.99
25638;BME280;13496;51.040;13.680;2023-10-09T06:47:12;99814.72;;;19.07;48.01
25638;BME280;13496;51.040;13.680;2023-10-09T06:52:14;99808.00;;;19.04;47.69
25638;BME280;13496;51.040;13.680;2023-10-09T06:57:17;99819.16;;;19.06;47.91
25638;BME280;13496;51.040;13.680;2023-10-09T07:02:39;99835.31;;;19.03;48.16
25638;BME280;13496;51.040;13.680;2023-10-09T07:07:49;99845.25;;;19.08;48.09
25638;BME280;13496;51.040;13.680;2023-10-09T07:12:56;99837.75;;;19.05;47.93
25638;BME280;13496;51.040;13.680;2023-10-09T07:17:58;99838.19;;;19.08;48.03
25638;BME280;13496;51.040;13.680;2023-10-09T07:23:20;99843.00;;;19.05;48.12
25638;BME280;13496;51.040;13.680;2023-10-09T07:28:22;99852.53;;;19.06;48.11
25638;BME280;13496;51.040;13.680;2023-10-09T07:33:51;99855.34;;;19.04;48.17
25638;BME280;13496;51.040;13.680;2023-10-09T07:38:59;99876.59;;;19.03;47.67
25638;BME280;13496;51.040;13.680;2023-10-09T07:44:01;99859.78;;;19.04;47.80
25638;BME280;13496;51.040;13.680;2023-10-09T07:49:20;99861.16;;;19.00;47.98
25638;BME280;13496;51.040;13.680;2023-10-09T07:54:29;99858.91;;;18.97;48.27
25638;BME280;13496;51.040;13.680;2023-10-09T07:59:33;99866.81;;;18.97;48.51
25638;BME280;13496;51.040;13.680;2023-10-09T08:04:38;99869.44;;;18.97;48.40
25638;BME280;13496;51.040;13.680;2023-10-09T08:09:49;99869.00;;;18.93;48.36
25638;BME280;13496;51.040;13.680;2023-10-09T08:15:11;99865.19;;;18.96;48.39
25638;BME280;13496;51.040;13.680;2023-10-09T08:20:25;99857.91;;;18.98;48.45
25638;BME280;13496;51.040;13.680;2023-10-09T08:25:29;99854.28;;;18.99;48.39
25638;BME280;13496;51.040;13.680;2023-10-09T08:30:33;99857.28;;;18.96;48.19
25638;BME280;13496;51.040;13.680;2023-10-09T08:35:52;99877.88;;;18.92;48.95
25638;BME280;13496;51.040;13.680;2023-10-09T08:41:06;99874.44;;;18.92;48.80
25638;BME280;13496;51.040;13.680;2023-10-09T08:46:24;99868.78;;;18.95;48.71
25638;BME280;13496;51.040;13.680;2023-10-09T08:51:28;99877.06;;;18.92;49.46
25638;BME280;13496;51.040;13.680;2023-10-09T08:56:30;99891.19;;;18.91;49.04
25638;BME280;13496;51.040;13.680;2023-10-09T09:01:32;99897.09;;;18.93;49.37
25638;BME280;13496;51.040;13.680;2023-10-09T09:06:38;99884.16;;;18.91;49.62
25638;BME280;13496;51.040;13.680;2023-10-09T09:11:43;99900.09;;;18.90;49.61
25638;BME280;13496;51.040;13.680;2023-10-09T09:16:54;99897.91;;;18.93;49.13
25638;BME280;13496;51.040;13.680;2023-10-09T09:21:57;99908.63;;;18.92;49.62
25638;BME280;13496;51.040;13.680;2023-10-09T09:27:12;99902.13;;;18.88;49.87
25638;BME280;13496;51.040;13.680;2023-10-09T09:32:14;99899.72;;;18.93;48.94
25638;BME280;13496;51.040;13.680;2023-10-09T09:37:20;99904.19;;;18.92;49.68
25638;BME280;13496;51.040;13.680;2023-10-09T09:42:23;99888.19;;;18.94;49.12
25638;BME280;13496;51.040;13.680;2023-10-09T09:47:29;99887.84;;;18.97;49.13
25638;BME280;13496;51.040;13.680;2023-10-09T09:52:32;99900.19;;;18.96;49.55
25638;BME280;13496;51.040;13.680;2023-10-09T09:57:40;99908.13;;;19.03;49.10
25638;BME280;13496;51.040;13.680;2023-10-09T10:02:44;99912.75;;;19.01;49.43
25638;BME280;13496;51.040;13.680;2023-10-09T10:07:46;99901.66;;;19.05;48.98
25638;BME280;13496;51.040;13.680;2023-10-09T10:12:51;99890.91;;;19.00;49.15
25638;BME280;13496;51.040;13.680;2023-10-09T10:23:18;99906.25;;;18.97;49.47
25638;BME280;13496;51.040;13.680;2023-10-09T10:28:27;99903.03;;;19.01;49.90
25638;BME280;13496;51.040;13.680;2023-10-09T10:38:59;99910.75;;;19.03;49.26
25638;BME280;13496;51.040;13.680;2023-10-09T10:44:11;99890.97;;;19.07;49.24
25638;BME280;13496;51.040;13.680;2023-10-09T10:49:31;99888.53;;;19.05;49.16
25638;BME280;13496;51.040;13.680;2023-10-09T10:54:39;99877.84;;;19.07;48.88
25638;BME280;13496;51.040;13.680;2023-10-09T10:59:41;99863.06;;;19.06;48.86
25638;BME280;13496;51.040;13.680;2023-10-09T11:04:45;99856.78;;;19.07;48.71
25638;BME280;13496;51.040;13.680;2023-10-09T11:09:55;99863.88;;;19.06;48.75
25638;BME280;13496;51.040;13.680;2023-10-09T11:15:09;99845.84;;;19.03;49.42
25638;BME280;13496;51.040;13.680;2023-10-09T11:20:24;99849.28;;;19.04;49.38
25638;BME280;13496;51.040;13.680;2023-10-09T11:25:33;99847.03;;;19.01;49.33
25638;BME280;13496;51.040;13.680;2023-10-09T11:30:35;99839.94;;;19.01;48.94
25638;BME280;13496;51.040;13.680;2023-10-09T11:35:37;99837.50;;;19.00;48.69
25638;BME280;13496;51.040;13.680;2023-10-09T11:40:39;99856.53;;;19.02;49.25
25638;BME280;13496;51.040;13.680;2023-10-09T11:46:10;99863.81;;;19.00;49.88
25638;BME280;13496;51.040;13.680;2023-10-09T11:51:35;99853.16;;;19.08;49.00
25638;BME280;13496;51.040;13.680;2023-10-09T11:56:40;99853.38;;;19.13;48.76
25638;BME280;13496;51.040;13.680;2023-10-09T12:01:46;99839.44;;;19.13;48.28
25638;BME280;13496;51.040;13.680;2023-10-09T12:06:54;99835.03;;;19.20;48.74
25638;BME280;13496;51.040;13.680;2023-10-09T12:12:08;99846.13;;;19.15;48.48
25638;BME280;13496;51.040;13.680;2023-10-09T12:17:12;99837.81;;;19.12;48.54
25638;BME280;13496;51.040;13.680;2023-10-09T12:22:14;99840.88;;;19.15;48.51
25638;BME280;13496;51.040;13.680;2023-10-09T12:27:17;99839.88;;;19.16;48.74
25638;BME280;13496;51.040;13.680;2023-10-09T12:32:21;99834.00;;;19.14;48.39
25638;BME280;13496;51.040;13.680;2023-10-09T12:37:23;99839.88;;;19.16;48.86
25638;BME280;13496;51.040;13.680;2023-10-09T12:42:25;99837.44;;;19.15;48.77
25638;BME280;13496;51.040;13.680;2023-10-09T12:47:29;99841.09;;;19.20;48.77
25638;BME280;13496;51.040;13.680;2023-10-09T12:52:31;99844.19;;;19.24;48.55
25638;BME280;13496;51.040;13.680;2023-10-09T12:57:33;99840.75;;;19.23;48.76
25638;BME280;13496;51.040;13.680;2023-10-09T13:02:35;99838.47;;;19.20;49.07
25638;BME280;13496;51.040;13.680;2023-10-09T13:07:37;99835.84;;;19.20;48.68
25638;BME280;13496;51.040;13.680;2023-10-09T13:12:41;99831.03;;;19.24;48.64
25638;BME280;13496;51.040;13.680;2023-10-09T13:17:43;99810.41;;;19.27;48.00
25638;BME280;13496;51.040;13.680;2023-10-09T13:22:44;99826.78;;;19.23;48.83
25638;BME280;13496;51.040;13.680;2023-10-09T13:27:49;99815.44;;;19.22;48.43
25638;BME280;13496;51.040;13.680;2023-10-09T13:32:53;99820.06;;;19.20;49.11
25638;BME280;13496;51.040;13.680;2023-10-09T13:37:56;99830.59;;;19.20;48.57
25638;BME280;13496;51.040;13.680;2023-10-09T13:42:58;99816.25;;;19.23;48.14
25638;BME280;13496;51.040;13.680;2023-10-09T13:48:03;99815.44;;;19.22;48.53
25638;BME280;13496;51.040;13.680;2023-10-09T13:53:05;99813.84;;;19.28;49.11
25638;BME280;13496;51.040;13.680;2023-10-09T13:58:12;99817.44;;;19.20;49.21
25638;BME280;13496;51.040;13.680;2023-10-09T14:03:15;99820.28;;;19.19;49.79
25638;BME280;13496;51.040;13.680;2023-10-09T14:08:21;99822.09;;;19.18;49.47
25638;BME280;13496;51.040;13.680;2023-10-09T14:13:27;99837.22;;;19.16;49.91
25638;BME280;13496;51.040;13.680;2023-10-09T14:18:30;99826.09;;;19.14;49.66
25638;BME280;13496;51.040;13.680;2023-10-09T14:23:31;99821.81;;;19.13;49.63
25638;BME280;13496;51.040;13.680;2023-10-09T14:28:38;99814.19;;;19.18;49.43
25638;BME280;13496;51.040;13.680;2023-10-09T14:33:39;99823.09;;;19.17;49.29
25638;BME280;13496;51.040;13.680;2023-10-09T14:38:42;99822.03;;;19.12;49.94
25638;BME280;13496;51.040;13.680;2023-10-09T14:43:43;99827.09;;;19.13;48.98
25638;BME280;13496;51.040;13.680;2023-10-09T14:48:47;99832.97;;;19.15;49.83
25638;BME280;13496;51.040;13.680;2023-10-09T14:53:49;99827.72;;;19.15;49.64
25638;BME280;13496;51.040;13.680;2023-10-09T14:58:51;99821.81;;;19.13;49.26
25638;BME280;13496;51.040;13.680;2023-10-09T15:03:53;99832.34;;;19.13;49.18
25638;BME280;13496;51.040;13.680;2023-10-09T15:08:57;99839.63;;;19.11;49.34
25638;BME280;13496;51.040;13.680;2023-10-09T15:14:09;99830.28;;;19.08;49.93
25638;BME280;13496;51.040;13.680;2023-10-09T15:19:11;99838.63;;;19.12;49.23
25638;BME280;13496;51.040;13.680;2023-10-09T15:24:14;99840.63;;;19.10;49.71
25638;BME280;13496;51.040;13.680;2023-10-09T15:29:17;99844.88;;;19.11;49.09
25638;BME280;13496;51.040;13.680;2023-10-09T15:34:21;99850.16;;;19.11;49.33
25638;BME280;13496;51.040;13.680;2023-10-09T15:39:23;99848.53;;;19.10;49.32
25638;BME280;13496;51.040;13.680;2023-10-09T15:44:25;99855.19;;;19.06;49.23
25638;BME280;13496;51.040;13.680;2023-10-09T15:49:27;99855.78;;;19.08;48.90
25638;BME280;13496;51.040;13.680;2023-10-09T15:54:30;99859.41;;;19.07;48.77
25638;BME280;13496;51.040;13.680;2023-10-09T15:59:32;99861.03;;;19.08;48.95
25638;BME280;13496;51.040;13.680;2023-10-09T16:04:34;99862.22;;;19.05;48.94
25638;BME280;13496;51.040;13.680;2023-10-09T16:09:35;99859.41;;;19.07;48.68
25638;BME280;13496;51.040;13.680;2023-10-09T16:14:40;99868.31;;;19.06;49.00
25638;BME280;13496;51.040;13.680;2023-10-09T16:19:42;99881.47;;;19.06;49.40
25638;BME280;13496;51.040;13.680;2023-10-09T16:24:44;99884.28;;;19.04;49.08
25638;BME280;13496;51.040;13.680;2023-10-09T16:29:46;99884.84;;;19.00;48.75
25638;BME280;13496;51.040;13.680;2023-10-09T16:34:52;99884.84;;;19.00;48.92
25638;BME280;13496;51.040;13.680;2023-10-09T16:39:54;99878.94;;;18.98;48.87
25638;BME280;13496;51.040;13.680;2023-10-09T16:44:56;99874.31;;;19.00;48.87
25638;BME280;13496;51.040;13.680;2023-10-09T16:49:58;99878.78;;;18.99;49.16
25638;BME280;13496;51.040;13.680;2023-10-09T16:55:01;99886.66;;;18.99;48.80
25638;BME280;13496;51.040;13.680;2023-10-09T17:00:02;99883.03;;;19.00;48.92
25638;BME280;13496;51.040;13.680;2023-10-09T17:05:05;99889.28;;;18.99;49.18
25638;BME280;13496;51.040;13.680;2023-10-09T17:10:11;99892.72;;;19.00;49.45
25638;BME280;13496;51.040;13.680;2023-10-09T17:15:18;99899.81;;;18.99;49.32
25638;BME280;13496;51.040;13.680;2023-10-09T17:20:20;99906.50;;;19.02;49.05
25638;BME280;13496;51.040;13.680;2023-10-09T17:25:29;99891.91;;;18.99;49.10
25638;BME280;13496;51.040;13.680;2023-10-09T17:30:33;99902.25;;;19.01;48.86
25638;BME280;13496;51.040;13.680;2023-10-09T17:35:35;99906.69;;;19.00;49.21
25638;BME280;13496;51.040;13.680;2023-10-09T17:40:44;99899.81;;;18.99;48.85
25638;BME280;13496;51.040;13.680;2023-10-09T17:45:46;99892.53;;;19.01;49.22
25638;BME280;13496;51.040;13.680;2023-10-09T17:50:49;99892.72;;;19.00;49.55
25638;BME280;13496;51.040;13.680;2023-10-09T17:55:53;99908.88;;;18.97;49.36
25638;BME280;13496;51.040;13.680;2023-10-09T18:00:56;99918.38;;;18.98;49.00
25638;BME280;13496;51.040;13.680;2023-10-09T18:05:59;99907.88;;;18.98;49.51
25638;BME280;13496;51.040;13.680;2023-10-09T18:11:01;99913.13;;;18.98;49.76
25638;BME280;13496;51.040;13.680;2023-10-09T18:16:07;99905.44;;;18.96;49.29
25638;BME280;13496;51.040;13.680;2023-10-09T18:21:09;99904.63;;;18.96;49.87
25638;BME280;13496;51.040;13.680;2023-10-09T18:26:11;99907.25;;;18.96;49.74
25638;BME280;13496;51.040;13.680;2023-10-09T18:31:16;99901.19;;;18.95;49.40
25638;BME280;13496;51.040;13.680;2023-10-09T18:36:18;99905.59;;;18.95;50.08
25638;BME280;13496;51.040;13.680;2023-10-09T18:41:20;99905.59;;;18.95;49.17
25638;BME280;13496;51.040;13.680;2023-10-09T18:46:23;99911.88;;;18.94;49.54
25638;BME280;13496;51.040;13.680;2023-10-09T18:51:25;99907.25;;;18.96;50.67
25638;BME280;13496;51.040;13.680;2023-10-09T18:56:29;99913.69;;;18.93;49.73
25638;BME280;13496;51.040;13.680;2023-10-09T19:01:30;99913.69;;;18.93;49.54
25638;BME280;13496;51.040;13.680;2023-10-09T19:06:32;99919.59;;;18.95;49.33
25638;BME280;13496;51.040;13.680;2023-10-09T19:11:34;99912.06;;;18.92;50.99
25638;BME280;13496;51.040;13.680;2023-10-09T19:16:40;99926.03;;;18.93;50.22
25638;BME280;13496;51.040;13.680;2023-10-09T19:21:42;99920.56;;;18.94;49.76
25638;BME280;13496;51.040;13.680;2023-10-09T19:26:45;99914.69;;;18.92;50.23
25638;BME280;13496;51.040;13.680;2023-10-09T19:31:49;99913.50;;;18.95;49.67
25638;BME280;13496;51.040;13.680;2023-10-09T19:36:51;99914.31;;;18.95;50.95
25638;BME280;13496;51.040;13.680;2023-10-09T19:41:52;99912.88;;;18.93;49.78
25638;BME280;13496;51.040;13.680;2023-10-09T19:46:54;99915.31;;;18.94;50.35
25638;BME280;13496;51.040;13.680;2023-10-09T19:51:55;99912.06;;;18.92;50.89
25638;BME280;13496;51.040;13.680;2023-10-09T19:56:57;99922.38;;;18.94;49.32
25638;BME280;13496;51.040;13.680;2023-10-09T20:01:59;99925.00;;;18.94;49.56
25638;BME280;13496;51.040;13.680;2023-10-09T20:07:01;99933.91;;;18.93;50.12
25638;BME280;13496;51.040;13.680;2023-10-09T20:12:02;99944.06;;;18.96;49.94
25638;BME280;13496;51.040;13.680;2023-10-09T20:17:04;99934.72;;;18.93;49.45
25638;BME280;13496;51.040;13.680;2023-10-09T20:22:06;99940.19;;;18.92;50.65
25638;BME280;13496;51.040;13.680;2023-10-09T20:27:08;99937.56;;;18.92;50.52
25638;BME280;13496;51.040;13.680;2023-10-09T20:32:10;99937.34;;;18.93;49.71
25638;BME280;13496;51.040;13.680;2023-10-09T20:37:17;99944.44;;;18.93;50.12
25638;BME280;13496;51.040;13.680;2023-10-09T20:42:19;99950.06;;;18.90;49.77
25638;BME280;13496;51.040;13.680;2023-10-09T20:47:23;99960.19;;;18.93;49.68
25638;BME280;13496;51.040;13.680;2023-10-09T20:52:27;99982.25;;;18.92;51.04
25638;BME280;13496;51.040;13.680;2023-10-09T20:57:29;99974.72;;;18.89;50.88
25638;BME280;13496;51.040;13.680;2023-10-09T21:02:30;99987.31;;;18.93;50.66
25638;BME280;13496;51.040;13.680;2023-10-09T21:07:32;99983.06;;;18.92;50.45
25638;BME280;13496;51.040;13.680;2023-10-09T21:12:36;99989.13;;;18.93;50.69
25638;BME280;13496;51.040;13.680;2023-10-09T21:17:38;99990.94;;;18.92;51.52
25638;BME280;13496;51.040;13.680;2023-10-09T21:22:39;99996.38;;;18.91;50.37
25638;BME280;13496;51.040;13.680;2023-10-09T21:27:44;100003.28;;;18.92;50.09
25638;BME280;13496;51.040;13.680;2023-10-09T21:32:48;99997.22;;;18.91;51.65
25638;BME280;13496;51.040;13.680;2023-10-09T21:37:52;100001.00;;;18.89;50.70
25638;BME280;13496;51.040;13.680;2023-10-09T21:42:58;100013.78;;;18.92;51.86
25638;BME280;13496;51.040;13.680;2023-10-09T21:48:00;100007.72;;;18.91;51.15
25638;BME280;13496;51.040;13.680;2023-10-09T21:53:01;100014.97;;;18.89;50.88
25638;BME280;13496;51.040;13.680;2023-10-09T21:58:04;100006.06;;;18.90;50.64
25638;BME280;13496;51.040;13.680;2023-10-09T22:03:09;100013.50;;;18.86;50.33
25638;BME280;13496;51.040;13.680;2023-10-09T22:08:14;100011.16;;;18.92;50.75
25638;BME280;13496;51.040;13.680;2023-10-09T22:13:15;100018.59;;;18.88;50.38
25638;BME280;13496;51.040;13.680;2023-10-09T22:18:20;100008.91;;;18.89;51.35
25638;BME280;13496;51.040;13.680;2023-10-09T22:23:21;100013.78;;;18.92;50.35
25638;BME280;13496;51.040;13.680;2023-10-09T22:28:32;100012.13;;;18.91;50.85
25638;BME280;13496;51.040;13.680;2023-10-09T22:33:42;100015.78;;;18.90;50.13
25638;BME280;13496;51.040;13.680;2023-10-09T22:38:46;100015.78;;;18.90;50.22
25638;BME280;13496;51.040;13.680;2023-10-09T22:43:56;100022.66;;;18.91;49.87
25638;BME280;13496;51.040;13.680;2023-10-09T22:49:01;100020.88;;;18.91;51.30
25638;BME280;13496;51.040;13.680;2023-10-09T22:54:16;100017.41;;;18.91;50.93
25638;BME280;13496;51.040;13.680;2023-10-09T22:59:24;100002.63;;;18.90;50.22
25638;BME280;13496;51.040;13.680;2023-10-09T23:04:28;100009.72;;;18.89;50.65
25638;BME280;13496;51.040;13.680;2023-10-09T23:09:40;100012.53;;;18.88;50.18
25638;BME280;13496;51.040;13.680;2023-10-09T23:14:53;100022.84;;;18.89;50.27
25638;BME280;13496;51.040;13.680;2023-10-09T23:19:55;100030.75;;;18.89;50.30
25638;BME280;13496;51.040;13.680;2023-10-09T23:24:57;100036.81;;;18.90;51.68
25638;BME280;13496;51.040;13.680;2023-10-09T23:30:19;100037.81;;;18.89;50.45
25638;BME280;13496;51.040;13.680;2023-10-09T23:35:24;100046.31;;;18.91;50.40
25638;BME280;13496;51.040;13.680;2023-10-09T23:40:45;100034.38;;;18.88;50.19
25638;BME280;13496;51.040;13.680;2023-10-09T23:45:49;100044.69;;;18.90;50.84
25638;BME280;13496;51.040;13.680;2023-10-09T23:51:01;100046.53;;;18.89;49.92
25638;BME280;13496;51.040;13.680;2023-10-09T23:56:06;100050.31;;;18.86;51.33
